createdAt,value
2018-07-26T18:30:46.419Z,46.20
2018-07-26T18:31:19.243Z,46.90
2018-07-26T18:31:51.936Z,46.90
2018-07-26T18:32:24.659Z,46.90
2018-07-26T18:32:57.342Z,46.70
2018-07-26T18:33:30.035Z,46.50
2018-07-26T18:34:02.819Z,46.50
2018-07-26T18:34:35.557Z,46.60
2018-07-26T18:35:08.336Z,46.70
2018-07-26T18:35:41.417Z,46.00
2018-07-26T18:36:14.178Z,46.30
2018-07-26T18:36:46.911Z,46.40
2018-07-26T18:37:19.656Z,46.40
2018-07-26T18:37:52.417Z,46.30
2018-07-26T18:38:25.157Z,46.40
2018-07-26T18:38:57.936Z,46.50
2018-07-26T18:39:30.646Z,46.70
2018-07-26T18:40:04.426Z,46.40
2018-07-26T18:40:37.187Z,47.20
2018-07-26T18:41:09.931Z,46.30
2018-07-26T18:41:42.655Z,47.20
2018-07-26T18:42:15.403Z,47.20
2018-07-26T18:42:48.101Z,47.30
2018-07-26T18:43:20.840Z,47.40
2018-07-26T18:43:53.579Z,48.10
2018-07-26T18:44:26.251Z,47.50
2018-07-26T18:44:58.962Z,47.80
2018-07-26T18:45:31.702Z,48.30
2018-07-26T18:46:04.475Z,48.10
2018-07-26T18:46:38.011Z,48.20
2018-07-26T18:47:10.758Z,48.20
2018-07-26T18:47:43.586Z,48.10
2018-07-26T18:48:16.291Z,48.20
2018-07-26T18:48:49.033Z,48.50
2018-07-26T18:49:21.748Z,48.70
2018-07-26T18:49:54.473Z,48.20
2018-07-26T18:50:59.994Z,47.90
2018-07-26T18:51:32.726Z,48.10
2018-07-26T18:52:05.639Z,47.90
2018-07-26T18:52:38.467Z,48.50
2018-07-26T18:53:11.329Z,48.70
2018-07-26T18:53:44.094Z,48.80
2018-07-26T18:54:16.798Z,48.80
2018-07-26T18:54:49.530Z,49.30
2018-07-26T18:55:22.239Z,49.30
2018-07-26T18:55:54.999Z,48.50
2018-07-26T18:56:27.726Z,48.60
2018-07-26T18:57:00.458Z,48.40
2018-07-26T18:57:33.358Z,48.60
2018-07-26T18:58:06.118Z,48.80
2018-07-26T18:58:38.848Z,49.00
2018-07-26T18:59:11.564Z,48.80
2018-07-26T18:59:44.251Z,48.80
2018-07-26T19:00:16.952Z,49.00
2018-07-26T19:00:49.706Z,49.10
2018-07-26T19:01:22.557Z,48.90
2018-07-26T19:01:55.330Z,48.70
2018-07-26T19:02:28.047Z,48.50
2018-07-26T19:03:00.843Z,47.70
2018-07-26T19:03:33.623Z,47.20
2018-07-26T19:04:06.386Z,47.70
2018-07-26T19:04:39.102Z,47.20
2018-07-26T19:05:11.822Z,47.40
2018-07-26T19:05:44.534Z,47.30
2018-07-26T19:06:17.242Z,47.20
2018-07-26T19:06:49.950Z,46.70
2018-07-26T19:07:22.670Z,47.00
2018-07-26T19:07:55.402Z,47.60
2018-07-26T19:08:28.116Z,47.30
2018-07-26T19:09:00.862Z,47.20
2018-07-26T19:09:33.571Z,47.20
2018-07-26T19:10:09.027Z,46.80
2018-07-26T19:10:41.803Z,46.30
2018-07-26T19:11:14.526Z,46.30
2018-07-26T19:11:47.295Z,46.00
2018-07-26T19:12:20.075Z,46.10
2018-07-26T19:12:52.799Z,46.60
2018-07-26T19:13:25.575Z,46.40
2018-07-26T19:13:58.310Z,46.60
2018-07-26T19:14:31.058Z,46.60
2018-07-26T19:15:05.763Z,46.10
2018-07-26T19:15:38.486Z,45.70
2018-07-26T19:16:11.238Z,46.20
2018-07-26T19:16:43.982Z,45.80
2018-07-26T19:17:16.716Z,45.90
2018-07-26T19:17:49.478Z,45.80
2018-07-26T19:18:22.206Z,45.50
2018-07-26T19:18:54.916Z,45.20
2018-07-26T19:19:27.643Z,45.20
2018-07-26T19:20:00.395Z,45.30
2018-07-26T19:20:33.091Z,45.10
2018-07-26T19:21:06.447Z,44.80
2018-07-26T19:21:39.122Z,44.70
2018-07-26T19:22:11.840Z,44.40
2018-07-26T19:22:44.578Z,44.60
2018-07-26T19:23:17.318Z,45.20
2018-07-26T19:23:50.067Z,44.50
2018-07-26T19:24:22.770Z,44.90
2018-07-26T19:24:55.476Z,44.40
2018-07-26T19:25:28.647Z,44.20
2018-07-26T19:26:01.411Z,44.10
2018-07-26T19:26:34.147Z,44.30
2018-07-26T19:27:06.841Z,44.00
2018-07-26T19:27:39.577Z,44.00
2018-07-26T19:28:12.290Z,43.90
2018-07-26T19:28:45.020Z,43.90
2018-07-26T19:29:17.735Z,43.90
2018-07-26T19:29:50.476Z,43.90
2018-07-26T19:30:23.194Z,43.80
2018-07-26T19:30:55.967Z,44.30
2018-07-26T19:31:28.655Z,43.90
2018-07-26T19:32:01.426Z,43.80
2018-07-26T19:32:34.119Z,44.30
2018-07-26T19:33:06.870Z,44.10
2018-07-26T19:33:39.614Z,44.50
2018-07-26T19:34:12.326Z,44.20
2018-07-26T19:34:45.060Z,44.60
2018-07-26T19:35:17.776Z,44.60
2018-07-26T19:35:50.514Z,44.30
2018-07-26T19:36:23.343Z,43.90
2018-07-26T19:36:56.075Z,44.10
2018-07-26T19:37:28.764Z,43.90
2018-07-26T19:38:01.498Z,43.80
2018-07-26T19:38:34.222Z,44.00
2018-07-26T19:39:08.982Z,44.10
2018-07-26T19:39:41.695Z,43.70
2018-07-26T19:40:14.398Z,43.60
2018-07-26T19:40:47.114Z,43.60
2018-07-26T19:41:19.865Z,43.80
2018-07-26T19:41:52.614Z,44.00
2018-07-26T19:42:25.523Z,44.00
2018-07-26T19:42:58.231Z,43.90
2018-07-26T19:43:30.958Z,43.90
2018-07-26T19:44:03.693Z,43.80
2018-07-26T19:44:36.431Z,43.40
2018-07-26T19:45:10.110Z,43.40
2018-07-26T19:45:42.830Z,44.10
2018-07-26T19:46:15.551Z,44.90
2018-07-26T19:46:48.249Z,45.10
2018-07-26T19:47:21.009Z,45.30
2018-07-26T19:47:53.702Z,45.00
2018-07-26T19:48:26.535Z,44.50
2018-07-26T19:48:59.251Z,44.70
2018-07-26T19:49:31.958Z,44.50
2018-07-26T19:50:04.770Z,44.50
2018-07-26T19:50:37.479Z,44.20
2018-07-26T19:51:10.183Z,43.90
2018-07-26T19:51:42.906Z,43.90
2018-07-26T19:52:15.608Z,43.80
2018-07-26T19:52:48.304Z,44.90
2018-07-26T19:53:21.053Z,45.80
2018-07-26T19:53:53.789Z,45.00
2018-07-26T19:54:26.471Z,45.40
2018-07-26T19:54:59.218Z,45.70
2018-07-26T19:55:31.930Z,45.40
2018-07-26T19:56:04.708Z,45.50
2018-07-26T19:56:37.483Z,45.60
2018-07-26T19:57:10.403Z,46.90
2018-07-26T19:57:43.110Z,46.30
2018-07-26T19:58:15.843Z,46.10
2018-07-26T19:58:48.526Z,46.60
2018-07-26T19:59:21.274Z,47.50
2018-07-26T19:59:53.983Z,47.10
2018-07-26T20:00:26.694Z,46.70
2018-07-26T20:00:59.378Z,47.10
2018-07-26T20:01:32.076Z,47.20
2018-07-26T20:02:04.890Z,47.90
2018-07-26T20:02:38.459Z,48.10
2018-07-26T20:03:11.176Z,48.20
2018-07-26T20:03:43.988Z,47.70
2018-07-26T20:04:16.755Z,47.40
2018-07-26T20:04:49.459Z,48.20
2018-07-26T20:05:22.258Z,48.40
2018-07-26T20:06:27.606Z,47.50
2018-07-26T20:07:32.994Z,48.60
2018-07-26T20:08:05.702Z,49.40
2018-07-26T20:08:38.406Z,49.40
2018-07-26T20:09:11.251Z,49.40
2018-07-26T20:09:43.964Z,49.60
2018-07-26T20:10:16.711Z,50.40
2018-07-26T20:10:49.458Z,50.90
2018-07-26T20:11:22.242Z,50.80
2018-07-26T20:11:54.935Z,50.90
2018-07-26T20:12:27.742Z,51.00
2018-07-26T20:13:00.556Z,51.50
2018-07-26T20:13:33.307Z,50.20
2018-07-26T20:14:07.110Z,49.90
2018-07-26T20:14:39.918Z,50.10
2018-07-26T20:15:12.624Z,49.70
2018-07-26T20:15:45.312Z,49.60
2018-07-26T20:16:18.043Z,48.60
2018-07-26T20:16:50.889Z,48.10
2018-07-26T20:17:23.567Z,48.50
2018-07-26T20:17:56.295Z,48.60
2018-07-26T20:18:29.030Z,48.50
2018-07-26T20:19:01.974Z,49.50
2018-07-26T20:19:34.718Z,50.00
2018-07-26T20:20:08.870Z,50.30
2018-07-26T20:21:14.206Z,51.90
2018-07-26T20:21:47.058Z,51.10
2018-07-26T20:22:19.803Z,51.00
2018-07-26T20:22:52.507Z,51.00
2018-07-26T20:23:25.202Z,51.30
2018-07-26T20:23:57.946Z,51.90
2018-07-26T20:24:30.690Z,51.50
2018-07-26T20:25:03.508Z,51.80
2018-07-26T20:25:40.910Z,51.90
2018-07-26T20:26:13.651Z,51.50
2018-07-26T20:26:46.384Z,51.30
2018-07-26T20:27:19.071Z,51.50
2018-07-26T20:27:51.857Z,51.90
2018-07-26T20:28:24.563Z,52.00
2018-07-26T20:28:57.303Z,51.90
2018-07-26T20:29:30.039Z,51.50
2018-07-26T20:30:03.107Z,51.20
2018-07-26T20:30:35.850Z,51.20
2018-07-26T20:31:08.658Z,51.10
2018-07-26T20:31:41.795Z,51.10
2018-07-26T20:32:14.722Z,51.30
2018-07-26T20:32:47.523Z,51.50
2018-07-26T20:33:20.246Z,51.60
2018-07-26T20:33:53.115Z,51.50
2018-07-26T20:34:25.809Z,51.90
2018-07-26T20:34:58.575Z,52.50
2018-07-26T20:35:31.326Z,52.30
2018-07-26T20:36:04.450Z,52.30
2018-07-26T20:36:37.238Z,51.70
2018-07-26T20:37:09.974Z,51.80
2018-07-26T20:37:42.714Z,51.90
2018-07-26T20:38:15.428Z,51.50
2018-07-26T20:39:20.807Z,52.20
2018-07-26T20:39:53.503Z,51.50
2018-07-26T20:40:26.223Z,51.10
2018-07-26T20:40:58.926Z,50.90
2018-07-26T20:41:31.642Z,50.70
2018-07-26T20:42:04.442Z,50.70
2018-07-26T20:42:37.167Z,50.60
2018-07-26T20:43:09.918Z,50.80
2018-07-26T20:43:42.674Z,52.50
2018-07-26T20:44:15.383Z,52.10
2018-07-26T20:44:48.066Z,52.50
2018-07-26T20:45:20.826Z,53.00
2018-07-26T20:45:53.530Z,53.50
2018-07-26T20:46:26.207Z,53.40
2018-07-26T20:46:58.906Z,53.30
2018-07-26T20:47:31.622Z,53.50
2018-07-26T20:48:04.657Z,53.60
2018-07-26T20:48:37.394Z,53.50
2018-07-26T20:49:10.047Z,53.90
2018-07-26T20:49:42.758Z,53.60
2018-07-26T20:50:15.515Z,53.70
2018-07-26T20:50:48.358Z,54.00
2018-07-26T20:51:21.046Z,55.00
2018-07-26T20:51:53.803Z,54.30
2018-07-26T20:52:26.518Z,53.60
2018-07-26T20:52:59.253Z,53.90
2018-07-26T20:53:31.974Z,54.40
2018-07-26T20:54:04.925Z,54.50
2018-07-26T20:54:37.626Z,54.60
2018-07-26T20:55:42.898Z,54.90
2018-07-26T20:56:15.646Z,55.00
2018-07-26T20:56:48.358Z,54.80
2018-07-26T20:57:21.051Z,54.80
2018-07-26T20:57:53.782Z,54.90
2018-07-26T20:58:26.506Z,55.80
2018-07-26T20:58:59.195Z,56.10
2018-07-26T20:59:31.924Z,57.20
2018-07-26T21:00:07.134Z,56.60
2018-07-26T21:00:39.883Z,56.20
2018-07-26T21:01:12.795Z,56.50
2018-07-26T21:01:45.506Z,56.50
2018-07-26T21:02:18.245Z,56.90
2018-07-26T21:02:50.954Z,57.30
2018-07-26T21:03:23.666Z,57.10
2018-07-26T21:03:56.455Z,56.60
2018-07-26T21:04:29.171Z,56.60
2018-07-26T21:05:01.931Z,56.70
2018-07-26T21:05:34.705Z,56.60
2018-07-26T21:06:07.411Z,57.20
2018-07-26T21:06:40.102Z,56.90
2018-07-26T21:07:12.813Z,56.60
2018-07-26T21:07:45.535Z,57.30
2018-07-26T21:08:18.252Z,57.50
2018-07-26T21:08:50.942Z,57.50
2018-07-26T21:09:23.659Z,57.20
2018-07-26T21:09:56.382Z,57.20
2018-07-26T21:10:29.075Z,57.00
2018-07-26T21:11:01.779Z,57.30
2018-07-26T21:11:34.495Z,57.30
2018-07-26T21:12:07.247Z,57.40
2018-07-26T21:12:39.958Z,57.50
2018-07-26T21:13:12.666Z,57.80
2018-07-26T21:13:45.383Z,58.20
2018-07-26T21:14:18.107Z,58.20
2018-07-26T21:14:50.826Z,58.20
2018-07-26T21:15:23.538Z,57.90
2018-07-26T21:15:56.223Z,58.50
2018-07-26T21:16:28.939Z,57.80
2018-07-26T21:17:01.659Z,57.70
2018-07-26T21:17:34.574Z,57.70
2018-07-26T21:18:07.373Z,57.80
2018-07-26T21:18:40.031Z,58.20
2018-07-26T21:19:12.795Z,58.10
2018-07-26T21:19:45.514Z,58.00
2018-07-26T21:20:18.254Z,58.00
2018-07-26T21:20:50.942Z,57.60
2018-07-26T21:21:23.707Z,57.30
2018-07-26T21:21:56.447Z,57.30
2018-07-26T21:22:29.174Z,57.40
2018-07-26T21:23:01.896Z,58.00
2018-07-26T21:23:34.638Z,58.20
2018-07-26T21:24:07.422Z,58.20
2018-07-26T21:24:40.227Z,57.90
2018-07-26T21:25:12.984Z,57.80
2018-07-26T21:25:46.322Z,57.30
2018-07-26T21:26:19.083Z,57.40
2018-07-26T21:26:51.810Z,57.70
2018-07-26T21:27:24.574Z,57.80
2018-07-26T21:27:57.321Z,57.70
2018-07-26T21:28:30.023Z,57.90
2018-07-26T21:29:02.778Z,57.90
2018-07-26T21:29:35.538Z,57.90
2018-07-26T21:30:08.352Z,58.00
2018-07-26T21:30:41.114Z,58.30
2018-07-26T21:31:13.922Z,58.40
2018-07-26T21:31:46.645Z,58.30
2018-07-26T21:32:19.468Z,58.20
2018-07-26T21:32:52.170Z,58.20
2018-07-26T21:33:25.031Z,58.10
2018-07-26T21:33:57.771Z,58.00
2018-07-26T21:34:30.446Z,58.30
2018-07-26T21:35:03.506Z,58.10
2018-07-26T21:35:36.411Z,57.90
2018-07-26T21:36:09.131Z,58.00
2018-07-26T21:36:41.982Z,58.20
2018-07-26T21:37:14.914Z,58.70
2018-07-26T21:37:47.635Z,58.80
2018-07-26T21:38:20.358Z,58.60
2018-07-26T21:38:53.098Z,59.00
2018-07-26T21:39:25.778Z,59.20
2018-07-26T21:39:58.507Z,59.60
2018-07-26T21:40:31.261Z,59.60
2018-07-26T21:41:03.910Z,59.50
2018-07-26T21:41:36.663Z,59.20
2018-07-26T21:42:09.607Z,58.90
2018-07-26T21:42:42.307Z,58.70
2018-07-26T21:43:15.646Z,58.60
2018-07-26T21:43:48.398Z,58.70
2018-07-26T21:44:21.295Z,59.00
2018-07-26T21:44:54.103Z,59.40
2018-07-26T21:45:26.871Z,59.70
2018-07-26T21:45:59.623Z,59.70
2018-07-26T21:46:32.324Z,59.70
2018-07-26T21:47:05.090Z,59.70
2018-07-26T21:47:37.850Z,59.50
2018-07-26T21:48:10.566Z,59.20
2018-07-26T21:48:43.286Z,58.70
2018-07-26T21:49:15.992Z,58.00
2018-07-26T21:49:48.718Z,58.50
2018-07-26T21:50:21.450Z,59.10
2018-07-26T21:50:54.179Z,59.10
2018-07-26T21:51:26.908Z,59.00
2018-07-26T21:51:59.622Z,59.00
2018-07-26T21:52:32.314Z,58.70
2018-07-26T21:53:05.672Z,58.40
2018-07-26T21:53:38.380Z,58.60
2018-07-26T21:54:11.075Z,57.90
2018-07-26T21:54:43.791Z,58.00
2018-07-26T21:55:16.616Z,58.10
2018-07-26T21:55:49.331Z,57.60
2018-07-26T21:56:22.058Z,57.90
2018-07-26T21:56:54.740Z,57.80
2018-07-26T21:57:27.554Z,57.80
2018-07-26T21:58:00.231Z,57.90
2018-07-26T21:58:32.930Z,57.80
2018-07-26T21:59:05.671Z,57.70
2018-07-26T21:59:38.399Z,57.30
2018-07-26T22:00:11.417Z,56.80
2018-07-26T22:00:49.848Z,57.20
2018-07-26T22:01:22.597Z,57.80
2018-07-26T22:01:55.414Z,57.70
2018-07-26T22:02:28.270Z,58.20
2018-07-26T22:03:00.908Z,58.20
2018-07-26T22:03:33.699Z,58.20
2018-07-26T22:04:06.523Z,57.70
2018-07-26T22:04:39.250Z,57.60
2018-07-26T22:05:11.954Z,58.30
2018-07-26T22:05:44.666Z,58.60
2018-07-26T22:06:17.355Z,58.60
2018-07-26T22:06:50.070Z,58.70
2018-07-26T22:07:22.807Z,58.20
2018-07-26T22:07:55.519Z,58.40
2018-07-26T22:08:28.238Z,58.80
2018-07-26T22:09:00.959Z,58.80
2018-07-26T22:10:06.684Z,58.70
2018-07-26T22:10:39.414Z,58.90
2018-07-26T22:11:12.098Z,58.90
2018-07-26T22:11:44.847Z,59.10
2018-07-26T22:12:17.562Z,59.20
2018-07-26T22:12:50.254Z,59.30
2018-07-26T22:13:22.972Z,59.40
2018-07-26T22:13:55.659Z,59.20
2018-07-26T22:14:28.375Z,59.40
2018-07-26T22:15:01.231Z,59.40
2018-07-26T22:15:33.994Z,59.50
2018-07-26T22:16:06.897Z,59.80
2018-07-26T22:16:39.566Z,60.10
2018-07-26T22:17:12.271Z,60.20
2018-07-26T22:17:44.988Z,60.20
2018-07-26T22:18:17.707Z,60.00
2018-07-26T22:18:50.391Z,60.00
2018-07-26T22:19:23.087Z,60.00
2018-07-26T22:19:55.783Z,59.80
2018-07-26T22:20:28.511Z,59.70
2018-07-26T22:21:01.207Z,59.50
2018-07-26T22:21:33.966Z,59.20
2018-07-26T22:22:07.018Z,59.00
2018-07-26T22:22:39.714Z,58.90
2018-07-26T22:23:12.467Z,59.10
2018-07-26T22:23:45.188Z,59.30
2018-07-26T22:24:17.943Z,59.30
2018-07-26T22:24:50.631Z,59.70
2018-07-26T22:25:23.359Z,59.80
2018-07-26T22:25:56.118Z,59.50
2018-07-26T22:26:28.822Z,59.40
2018-07-26T22:27:01.535Z,60.00
2018-07-26T22:27:34.231Z,59.80
2018-07-26T22:28:06.991Z,59.80
2018-07-26T22:28:39.912Z,59.90
2018-07-26T22:29:12.654Z,60.10
2018-07-26T22:29:45.287Z,60.00
2018-07-26T22:30:18.001Z,60.40
2018-07-26T22:30:50.767Z,60.80
2018-07-26T22:31:24.415Z,60.90
2018-07-26T22:31:57.303Z,60.70
2018-07-26T22:32:30.047Z,60.70
2018-07-26T22:33:02.734Z,60.60
2018-07-26T22:33:35.653Z,60.90
2018-07-26T22:34:08.382Z,61.00
2018-07-26T22:34:41.087Z,61.10
2018-07-26T22:35:13.807Z,60.90
2018-07-26T22:35:46.551Z,60.80
2018-07-26T22:36:19.246Z,60.80
2018-07-26T22:36:51.996Z,60.70
2018-07-26T22:37:24.733Z,60.70
2018-07-26T22:37:57.454Z,60.80
2018-07-26T22:38:30.183Z,60.70
2018-07-26T22:39:03.554Z,60.90
2018-07-26T22:39:36.360Z,61.00
2018-07-26T22:40:09.127Z,60.90
2018-07-26T22:40:41.890Z,60.70
2018-07-26T22:41:14.627Z,60.60
2018-07-26T22:41:47.334Z,60.70
2018-07-26T22:42:20.105Z,60.60
2018-07-26T22:42:52.818Z,60.70
2018-07-26T22:43:25.551Z,60.90
2018-07-26T22:43:58.238Z,61.30
2018-07-26T22:44:30.990Z,61.50
2018-07-26T22:45:04.299Z,62.20
2018-07-26T22:45:37.468Z,61.70
2018-07-26T22:46:10.159Z,61.70
2018-07-26T22:46:42.891Z,61.50
2018-07-26T22:47:15.590Z,61.50
2018-07-26T22:47:48.307Z,61.60
2018-07-26T22:48:21.062Z,61.60
2018-07-26T22:49:26.381Z,61.70
2018-07-26T22:49:59.082Z,61.70
2018-07-26T22:50:31.807Z,61.50
2018-07-26T22:51:04.565Z,62.20
2018-07-26T22:51:37.250Z,61.60
2018-07-26T22:52:09.973Z,61.70
2018-07-26T22:52:42.694Z,61.70
2018-07-26T22:53:15.462Z,61.90
2018-07-26T22:53:48.194Z,61.90
2018-07-26T22:54:20.879Z,61.90
2018-07-26T22:54:53.722Z,62.00
2018-07-26T22:55:26.683Z,62.00
2018-07-26T22:55:59.370Z,62.10
2018-07-26T22:56:32.435Z,62.10
2018-07-26T22:57:05.204Z,62.00
2018-07-26T22:57:37.918Z,62.00
2018-07-26T22:58:10.638Z,62.00
2018-07-26T22:58:43.350Z,62.20
2018-07-26T22:59:16.055Z,62.10
2018-07-26T22:59:48.738Z,62.20
2018-07-26T23:00:21.466Z,62.10
2018-07-26T23:00:54.211Z,62.10
2018-07-26T23:01:26.930Z,62.20
2018-07-26T23:01:59.655Z,62.30
2018-07-26T23:02:32.912Z,62.30
2018-07-26T23:03:05.730Z,62.30
2018-07-26T23:03:38.498Z,62.30
2018-07-26T23:04:11.256Z,62.20
2018-07-26T23:04:43.967Z,62.30
2018-07-26T23:05:16.702Z,62.50
2018-07-26T23:05:49.434Z,62.50
2018-07-26T23:06:22.563Z,62.50
2018-07-26T23:06:55.323Z,62.40
2018-07-26T23:07:28.223Z,62.50
2018-07-26T23:08:01.182Z,62.70
2018-07-26T23:08:33.882Z,62.80
2018-07-26T23:09:07.968Z,63.00
2018-07-26T23:09:40.734Z,63.00
2018-07-26T23:10:13.450Z,62.70
2018-07-26T23:10:46.162Z,63.60
2018-07-26T23:11:18.907Z,63.10
2018-07-26T23:11:51.618Z,63.00
2018-07-26T23:12:24.310Z,63.10
2018-07-26T23:12:57.115Z,63.20
2018-07-26T23:13:29.838Z,63.00
2018-07-26T23:14:02.602Z,63.10
2018-07-26T23:14:35.334Z,63.10
2018-07-26T23:15:09.412Z,63.20
2018-07-26T23:15:42.183Z,63.10
2018-07-26T23:16:14.930Z,63.10
2018-07-26T23:16:47.663Z,63.10
2018-07-26T23:17:53.107Z,63.20
2018-07-26T23:18:25.830Z,63.30
2018-07-26T23:18:58.588Z,63.40
2018-07-26T23:19:31.584Z,63.40
2018-07-26T23:20:04.766Z,63.50
2018-07-26T23:20:37.527Z,63.60
2018-07-26T23:21:10.211Z,63.60
2018-07-26T23:21:43.213Z,63.50
2018-07-26T23:22:16.419Z,63.60
2018-07-26T23:22:52.220Z,63.60
2018-07-26T23:23:24.962Z,63.60
2018-07-26T23:23:57.666Z,63.70
2018-07-26T23:24:30.546Z,63.70
2018-07-26T23:25:03.411Z,63.70
2018-07-26T23:25:36.130Z,63.70
2018-07-26T23:26:08.906Z,63.60
2018-07-26T23:26:41.603Z,63.50
2018-07-26T23:27:14.310Z,63.50
2018-07-26T23:27:46.996Z,63.40
2018-07-26T23:28:19.707Z,63.50
2018-07-26T23:28:52.398Z,64.00
2018-07-26T23:29:25.096Z,63.80
2018-07-26T23:29:57.786Z,64.20
2018-07-26T23:30:30.633Z,64.20
2018-07-26T23:31:03.365Z,64.20
2018-07-26T23:31:36.123Z,64.10
2018-07-26T23:32:08.862Z,64.20
2018-07-26T23:32:41.634Z,64.20
2018-07-26T23:33:14.290Z,64.20
2018-07-26T23:33:46.976Z,64.20
2018-07-26T23:34:19.665Z,64.30
2018-07-26T23:34:52.362Z,64.50
2018-07-26T23:35:25.071Z,64.30
2018-07-26T23:35:57.809Z,64.30
2018-07-26T23:36:30.534Z,64.40
2018-07-26T23:37:03.266Z,64.30
2018-07-26T23:37:36.126Z,64.30
2018-07-26T23:38:08.811Z,64.20
2018-07-26T23:38:41.493Z,64.40
2018-07-26T23:39:14.231Z,64.40
2018-07-26T23:39:46.940Z,64.60
2018-07-26T23:40:19.683Z,64.70
2018-07-26T23:40:52.426Z,64.80
2018-07-26T23:41:25.266Z,64.80
2018-07-26T23:41:58.002Z,64.90
2018-07-26T23:42:30.770Z,64.90
2018-07-26T23:43:36.258Z,65.00
2018-07-26T23:44:09.266Z,64.90
2018-07-26T23:44:42.426Z,64.80
2018-07-26T23:45:15.128Z,64.80
2018-07-26T23:46:20.503Z,64.80
2018-07-26T23:46:53.206Z,64.70
2018-07-26T23:47:25.899Z,64.70
2018-07-26T23:47:58.626Z,64.70
2018-07-26T23:48:31.343Z,64.60
2018-07-26T23:49:04.102Z,64.50
2018-07-26T23:49:36.793Z,64.60
2018-07-26T23:50:09.498Z,65.00
2018-07-26T23:50:42.322Z,65.30
2018-07-26T23:51:15.011Z,65.20
2018-07-26T23:51:47.734Z,65.50
2018-07-26T23:52:20.458Z,65.60
2018-07-26T23:52:53.158Z,65.60
2018-07-26T23:53:25.890Z,65.80
2018-07-26T23:53:58.602Z,66.40
2018-07-26T23:54:31.447Z,65.70
2018-07-26T23:55:04.559Z,65.60
2018-07-26T23:55:37.265Z,65.60
2018-07-26T23:56:09.950Z,65.60
2018-07-26T23:56:42.694Z,65.60
2018-07-26T23:57:15.409Z,65.50
2018-07-26T23:57:48.110Z,65.50
2018-07-26T23:58:20.799Z,65.50
2018-07-26T23:59:26.405Z,65.70
2018-07-26T23:59:59.087Z,65.80
